ORER/EBL METAR and TAF weather

Enter ICAO airport designator
Station Type Date Time Source
ORER METAR 2019/08/25 02:00 UTC NOAA

ORER 250200Z 31006KT 9000 NSC 27/06 Q1008 NOSIG


Station Type Date Time Source
ORER Decoded METAR 2019/08/25 02:00 UTC NOAA

Station name not available
Aug 24, 2019 - 10:00 PM EDT / 2019.08.25 0200 UTC
Wind: from the NW (310 degrees) at 7 MPH (6 KT):0
Visibility: 5 mile(s):0
Temperature: 80 F (27 C)
Dew Point: 42 F (6 C)
Relative Humidity: 26%
Pressure (altimeter): 29.77 in. Hg (1008 hPa)
ob: ORER 250200Z 31006KT 9000 NSC 27/06 Q1008 NOSIG
cycle: 2

Station Type Date Time Source
ORER TAF 2019/08/24 18:09 UTC NOAA

TAF ORER 241700Z 2418/2518 VRB03KT CAVOK

Example: see airport list